Time;durP1;ratioP1;P1;durP2;ratioP2;P2;SDS_P1;SDS_P2;PMS_P1;PMS_P2;Temp;Humidity;BMP_temperature;BMP_pressure;BME280_temperature;BME280_humidity;BME280_pressure;Samples;Min_cycle;Max_cycle;Signal;HPM_P1;HPM_P2
2023/02/28 00:01:20;;;;;;;3.50;3.00;;;;;;;;;;105414;1251;61656;-64
2023/02/28 00:03:49;;;;;;;3.00;2.70;;;;;;;;;;105427;1245;61658;-65
2023/02/28 00:06:17;;;;;;;3.20;2.70;;;;;;;;;;105413;1254;61706;-64
2023/02/28 00:08:46;;;;;;;3.20;2.80;;;;;;;;;;105643;1260;61701;-65
2023/02/28 00:11:14;;;;;;;4.40;3.20;;;;;;;;;;105457;1265;61687;-65
2023/02/28 00:13:46;;;;;;;3.10;2.70;;;;;;;;;;105419;1251;61593;-65
2023/02/28 00:16:16;;;;;;;2.80;2.50;;;;;;;;;;105335;1247;61669;-65
2023/02/28 00:18:44;;;;;;;4.40;2.60;;;;;;;;;;105441;1249;61786;-65
2023/02/28 00:21:12;;;;;;;3.10;2.50;;;;;;;;;;105435;1245;61639;-67
2023/02/28 00:23:41;;;;;;;3.30;2.80;;;;;;;;;;105383;1247;61630;-67
2023/02/28 00:26:09;;;;;;;3.30;3.00;;;;;;;;;;105481;1250;61573;-67
2023/02/28 00:28:38;;;;;;;3.20;2.60;;;;;;;;;;105474;1262;62391;-66
2023/02/28 00:31:08;;;;;;;3.20;2.50;;;;;;;;;;105482;1254;61700;-63
2023/02/28 00:33:36;;;;;;;3.20;2.70;;;;;;;;;;105343;1250;61572;-64
2023/02/28 00:36:06;;;;;;;2.70;2.40;;;;;;;;;;105436;1265;61728;-65
2023/02/28 00:38:38;;;;;;;4.00;2.90;;;;;;;;;;105429;1250;62024;-65
2023/02/28 00:41:07;;;;;;;2.70;2.50;;;;;;;;;;105830;1245;61932;-66
2023/02/28 00:43:35;;;;;;;2.90;2.50;;;;;;;;;;109232;1244;59834;-64
2023/02/28 00:46:04;;;;;;;2.70;2.20;;;;;;;;;;107188;1250;61704;-65
2023/02/28 00:48:33;;;;;;;2.90;2.60;;;;;;;;;;105621;1250;61678;-64
2023/02/28 00:51:01;;;;;;;3.80;2.80;;;;;;;;;;105440;1257;61565;-66
2023/02/28 00:53:32;;;;;;;2.70;2.40;;;;;;;;;;105588;1251;61647;-65
2023/02/28 00:56:01;;;;;;;3.20;2.80;;;;;;;;;;105675;1247;61693;-65
2023/02/28 00:58:34;;;;;;;3.00;2.70;;;;;;;;;;105400;1257;60642;-64
2023/02/28 01:01:02;;;;;;;3.20;2.40;;;;;;;;;;105308;1255;61644;-66
2023/02/28 01:03:31;;;;;;;3.20;2.90;;;;;;;;;;105470;1254;61750;-65
2023/02/28 01:05:59;;;;;;;3.50;2.70;;;;;;;;;;105369;1250;61742;-65
2023/02/28 01:08:28;;;;;;;2.70;2.50;;;;;;;;;;105523;1253;61707;-65
2023/02/28 01:10:57;;;;;;;3.30;2.50;;;;;;;;;;105385;1248;61720;-65
2023/02/28 01:13:25;;;;;;;3.00;2.50;;;;;;;;;;105373;1253;61693;-65
2023/02/28 01:15:55;;;;;;;3.90;2.90;;;;;;;;;;105466;1251;61570;-64
2023/02/28 01:18:24;;;;;;;3.00;2.60;;;;;;;;;;105383;1252;61595;-65
2023/02/28 01:20:53;;;;;;;3.70;2.60;;;;;;;;;;105405;1256;61585;-65
2023/02/28 01:23:23;;;;;;;3.40;2.80;;;;;;;;;;105399;1259;61694;-64
2023/02/28 01:25:52;;;;;;;5.40;2.90;;;;;;;;;;105444;1267;61691;-64
2023/02/28 01:28:20;;;;;;;4.00;2.80;;;;;;;;;;105422;1246;61560;-65
2023/02/28 01:30:49;;;;;;;6.00;2.70;;;;;;;;;;105379;1266;61745;-64
2023/02/28 01:33:18;;;;;;;3.40;3.00;;;;;;;;;;105383;1247;61691;-67
2023/02/28 01:35:57;;;;;;;4.10;2.80;;;;;;;;;;105433;1250;61550;-66
2023/02/28 01:38:25;;;;;;;3.10;2.40;;;;;;;;;;105359;1259;61585;-64
2023/02/28 01:40:54;;;;;;;2.90;2.40;;;;;;;;;;105526;1245;61153;-64
2023/02/28 01:43:26;;;;;;;4.00;2.50;;;;;;;;;;105394;1250;61686;-64
2023/02/28 01:45:56;;;;;;;2.80;2.50;;;;;;;;;;105485;1255;61691;-65
2023/02/28 01:48:27;;;;;;;3.60;2.90;;;;;;;;;;105421;1251;61704;-65
2023/02/28 01:50:56;;;;;;;2.80;2.50;;;;;;;;;;105403;1259;61087;-65
2023/02/28 01:53:26;;;;;;;2.90;2.50;;;;;;;;;;105412;1258;61599;-65
2023/02/28 01:55:56;;;;;;;4.60;2.70;;;;;;;;;;105399;1260;62167;-65
2023/02/28 01:58:24;;;;;;;2.90;2.40;;;;;;;;;;105432;1261;61668;-64
2023/02/28 02:00:53;;;;;;;2.90;2.60;;;;;;;;;;105332;1253;61775;-66
2023/02/28 02:03:21;;;;;;;3.30;2.40;;;;;;;;;;105396;1255;61639;-65
2023/02/28 02:05:50;;;;;;;3.50;2.70;;;;;;;;;;105410;1254;61681;-64
2023/02/28 02:08:24;;;;;;;2.40;2.20;;;;;;;;;;105459;1250;61582;-66
2023/02/28 02:10:57;;;;;;;3.60;2.60;;;;;;;;;;105334;1264;61682;-65
2023/02/28 02:13:29;;;;;;;3.00;2.40;;;;;;;;;;105411;1250;61764;-66
2023/02/28 02:16:04;;;;;;;2.80;2.20;;;;;;;;;;105360;1254;61651;-64
2023/02/28 02:18:33;;;;;;;2.80;2.10;;;;;;;;;;105511;1251;61426;-64
2023/02/28 02:21:14;;;;;;;2.10;1.90;;;;;;;;;;105401;1261;61685;-65
2023/02/28 02:23:46;;;;;;;2.80;2.40;;;;;;;;;;105399;1250;61678;-65
2023/02/28 02:26:19;;;;;;;2.50;2.20;;;;;;;;;;105328;1259;61682;-65
2023/02/28 02:29:06;;;;;;;2.60;2.30;;;;;;;;;;105334;1246;61710;-65
2023/02/28 02:31:35;;;;;;;2.90;2.40;;;;;;;;;;105376;1257;61589;-65
2023/02/28 02:34:27;;;;;;;2.50;2.30;;;;;;;;;;105349;1251;61907;-65
2023/02/28 02:37:10;;;;;;;2.70;2.00;;;;;;;;;;105493;1253;61687;-65
2023/02/28 02:39:48;;;;;;;2.20;2.00;;;;;;;;;;105551;1250;61703;-63
2023/02/28 02:42:21;;;;;;;2.50;2.10;;;;;;;;;;105395;1250;61644;-66
2023/02/28 02:44:50;;;;;;;3.00;2.40;;;;;;;;;;108941;1246;60089;-67
2023/02/28 02:47:18;;;;;;;2.50;2.30;;;;;;;;;;106723;1252;61726;-65
2023/02/28 02:49:49;;;;;;;3.10;2.30;;;;;;;;;;105583;1262;61699;-65
2023/02/28 02:52:18;;;;;;;2.60;2.00;;;;;;;;;;105639;1250;61703;-64
2023/02/28 02:54:46;;;;;;;3.80;2.30;;;;;;;;;;105429;1256;61662;-64
2023/02/28 02:57:19;;;;;;;2.80;2.40;;;;;;;;;;105522;1250;61575;-64
2023/02/28 02:59:49;;;;;;;2.60;2.20;;;;;;;;;;105597;1247;61633;-65
2023/02/28 03:02:17;;;;;;;4.20;2.20;;;;;;;;;;105347;1253;61729;-64
2023/02/28 03:04:46;;;;;;;3.00;2.50;;;;;;;;;;105312;1246;61729;-64
2023/02/28 03:07:19;;;;;;;2.00;1.80;;;;;;;;;;105382;1247;61675;-66
2023/02/28 03:09:53;;;;;;;2.30;2.10;;;;;;;;;;105357;1245;61788;-64
2023/02/28 03:12:23;;;;;;;2.60;2.10;;;;;;;;;;105346;1262;61694;-63
2023/02/28 03:15:07;;;;;;;2.70;2.30;;;;;;;;;;105485;1244;61716;-64
2023/02/28 03:17:49;;;;;;;2.30;2.10;;;;;;;;;;105410;1246;61691;-65
2023/02/28 03:20:27;;;;;;;2.40;2.10;;;;;;;;;;105314;1256;61686;-64
2023/02/28 03:23:13;;;;;;;2.10;1.90;;;;;;;;;;105518;1256;61582;-62
2023/02/28 03:25:48;;;;;;;2.20;1.90;;;;;;;;;;105395;1264;61109;-64
2023/02/28 03:28:40;;;;;;;3.40;2.30;;;;;;;;;;105526;1261;61694;-64
2023/02/28 03:31:09;;;;;;;2.00;1.80;;;;;;;;;;105140;1254;61727;-64
2023/02/28 03:33:56;;;;;;;2.50;2.10;;;;;;;;;;105481;1261;61066;-64
2023/02/28 03:36:25;;;;;;;;;;;;;;;;;;105653;1250;61540;-64
2023/02/28 03:38:55;;;;;;;3.50;2.20;;;;;;;;;;105342;1253;61049;-63
2023/02/28 03:41:24;;;;;;;3.70;2.40;;;;;;;;;;105406;1251;61672;-64
2023/02/28 03:43:54;;;;;;;2.40;2.20;;;;;;;;;;107349;1244;60993;-65
2023/02/28 03:46:25;;;;;;;2.00;1.80;;;;;;;;;;105448;1246;61577;-66
2023/02/28 03:48:58;;;;;;;2.30;2.10;;;;;;;;;;105396;1246;61686;-64
2023/02/28 03:51:26;;;;;;;2.50;1.90;;;;;;;;;;105388;1259;61243;-64
2023/02/28 03:53:59;;;;;;;2.90;2.30;;;;;;;;;;105369;1256;61700;-64
2023/02/28 03:56:31;;;;;;;2.80;2.30;;;;;;;;;;105391;1250;61728;-65
2023/02/28 03:59:05;;;;;;;2.50;2.10;;;;;;;;;;105403;1250;61617;-64
2023/02/28 04:01:38;;;;;;;2.40;2.00;;;;;;;;;;105407;1250;61691;-64
2023/02/28 04:04:06;;;;;;;2.40;2.20;;;;;;;;;;105459;1250;61688;-65
2023/02/28 04:06:35;;;;;;;3.00;2.40;;;;;;;;;;105438;1258;61607;-64
2023/02/28 04:09:04;;;;;;;2.40;2.10;;;;;;;;;;105477;1258;61682;-64
2023/02/28 04:11:37;;;;;;;2.30;2.10;;;;;;;;;;105407;1267;61772;-65
2023/02/28 04:14:06;;;;;;;2.20;2.00;;;;;;;;;;105525;1250;61473;-65
2023/02/28 04:16:35;;;;;;;1.70;1.50;;;;;;;;;;105472;1244;61111;-67
2023/02/28 04:19:05;;;;;;;2.10;1.90;;;;;;;;;;105392;1244;61655;-67
2023/02/28 04:21:43;;;;;;;3.00;2.40;;;;;;;;;;105416;1248;61684;-63
2023/02/28 04:24:15;;;;;;;3.00;2.30;;;;;;;;;;105448;1250;61707;-62
2023/02/28 04:26:46;;;;;;;2.60;2.30;;;;;;;;;;105515;1246;61668;-62
2023/02/28 04:29:18;;;;;;;2.70;2.20;;;;;;;;;;105394;1244;61710;-63
2023/02/28 04:31:47;;;;;;;2.70;2.20;;;;;;;;;;105402;1251;61547;-68
2023/02/28 04:34:16;;;;;;;3.10;1.90;;;;;;;;;;105398;1250;61700;-63
2023/02/28 04:36:45;;;;;;;2.40;1.70;;;;;;;;;;105418;1245;61678;-62
2023/02/28 04:39:18;;;;;;;2.20;2.00;;;;;;;;;;105463;1247;61704;-63
2023/02/28 04:41:46;;;;;;;2.60;2.00;;;;;;;;;;105450;1250;61694;-62
2023/02/28 04:44:14;;;;;;;2.00;1.80;;;;;;;;;;106137;1247;61585;-62
2023/02/28 04:46:43;;;;;;;2.10;1.80;;;;;;;;;;109203;1245;60003;-62
2023/02/28 04:49:11;;;;;;;3.70;2.00;;;;;;;;;;109200;1244;59546;-64
2023/02/28 04:51:42;;;;;;;3.20;1.90;;;;;;;;;;108129;1245;61601;-63
2023/02/28 04:54:11;;;;;;;1.90;1.70;;;;;;;;;;105508;1246;61618;-61
2023/02/28 04:56:45;;;;;;;2.00;1.80;;;;;;;;;;107977;1244;61580;-63
2023/02/28 04:59:16;;;;;;;2.80;2.20;;;;;;;;;;106820;1245;61701;-61
2023/02/28 05:01:45;;;;;;;3.60;1.90;;;;;;;;;;105544;1247;61700;-63
2023/02/28 05:04:13;;;;;;;2.50;2.30;;;;;;;;;;105406;1266;61700;-63
2023/02/28 05:08:19;;;;;;;2.50;2.30;;;;;;;;;;101961;1289;599761;-63
2023/02/28 05:10:48;;;;;;;2.50;2.30;;;;;;;;;;104127;1279;60192;-64
2023/02/28 05:13:17;;;;;;;3.20;2.60;;;;;;;;;;104260;1260;60272;-62
2023/02/28 05:15:45;;;;;;;4.00;3.20;;;;;;;;;;104145;1265;60256;-63
2023/02/28 05:18:16;;;;;;;3.10;2.80;;;;;;;;;;104115;1260;60201;-64
2023/02/28 05:20:44;;;;;;;3.30;2.90;;;;;;;;;;104184;1261;60258;-63
2023/02/28 05:23:13;;;;;;;2.90;2.60;;;;;;;;;;104187;1266;60189;-63
2023/02/28 05:25:41;;;;;;;3.50;3.00;;;;;;;;;;104349;1257;60290;-65
2023/02/28 05:28:10;;;;;;;3.50;2.40;;;;;;;;;;104331;1263;60252;-65
2023/02/28 05:30:39;;;;;;;3.10;2.60;;;;;;;;;;104429;1275;60126;-62
2023/02/28 05:33:09;;;;;;;3.00;2.70;;;;;;;;;;104396;1259;60876;-61
2023/02/28 05:35:42;;;;;;;2.70;2.30;;;;;;;;;;104214;1264;60923;-63
2023/02/28 05:38:10;;;;;;;2.90;2.30;;;;;;;;;;104274;1258;60784;-69
2023/02/28 05:40:40;;;;;;;2.50;2.30;;;;;;;;;;104439;1262;60855;-69
2023/02/28 05:43:09;;;;;;;2.70;2.30;;;;;;;;;;104321;1262;60889;-68
2023/02/28 05:45:38;;;;;;;3.50;2.50;;;;;;;;;;104203;1262;60715;-66
2023/02/28 05:48:06;;;;;;;2.40;2.10;;;;;;;;;;105983;1257;60375;-67
2023/02/28 05:50:35;;;;;;;2.30;2.10;;;;;;;;;;104364;1260;60853;-68
2023/02/28 05:53:03;;;;;;;2.90;2.60;;;;;;;;;;104271;1260;60838;-68
2023/02/28 05:55:31;;;;;;;3.00;2.70;;;;;;;;;;104385;1259;60825;-67
2023/02/28 05:58:02;;;;;;;2.70;2.50;;;;;;;;;;104355;1258;60882;-65
2023/02/28 06:00:30;;;;;;;3.00;2.60;;;;;;;;;;104367;1262;60898;-64
2023/02/28 06:03:01;;;;;;;4.40;2.40;;;;;;;;;;105508;1247;60853;-65
2023/02/28 06:05:30;;;;;;;2.80;2.20;;;;;;;;;;105412;1249;60882;-64
2023/02/28 06:07:59;;;;;;;2.90;2.60;;;;;;;;;;105399;1252;61937;-64
2023/02/28 06:10:28;;;;;;;2.80;2.50;;;;;;;;;;105433;1251;61073;-63
2023/02/28 06:12:59;;;;;;;2.40;2.20;;;;;;;;;;105381;1253;61366;-65
2023/02/28 06:15:28;;;;;;;3.40;2.50;;;;;;;;;;105332;1251;60827;-65
2023/02/28 06:17:57;;;;;;;3.10;2.70;;;;;;;;;;105514;1251;60866;-65
2023/02/28 06:20:28;;;;;;;2.50;2.30;;;;;;;;;;105369;1251;60783;-66
2023/02/28 06:23:00;;;;;;;3.00;2.70;;;;;;;;;;105224;1253;61414;-63
2023/02/28 06:25:29;;;;;;;3.60;2.90;;;;;;;;;;105296;1248;60879;-65
2023/02/28 06:27:59;;;;;;;4.60;2.70;;;;;;;;;;105300;1248;60867;-64
2023/02/28 06:30:29;;;;;;;4.10;2.70;;;;;;;;;;105392;1247;60834;-64
2023/02/28 06:32:58;;;;;;;3.20;2.60;;;;;;;;;;105298;1261;60866;-63
2023/02/28 06:35:26;;;;;;;3.50;2.70;;;;;;;;;;105353;1253;60859;-65
2023/02/28 06:37:55;;;;;;;2.90;2.60;;;;;;;;;;105267;1253;60791;-67
2023/02/28 06:40:23;;;;;;;4.10;2.60;;;;;;;;;;105341;1251;60724;-64
2023/02/28 06:42:51;;;;;;;3.10;2.70;;;;;;;;;;105250;1247;60756;-66
2023/02/28 06:45:19;;;;;;;2.60;2.40;;;;;;;;;;105367;1251;60865;-63
2023/02/28 06:47:51;;;;;;;3.20;2.70;;;;;;;;;;107308;1247;60769;-65
2023/02/28 06:50:20;;;;;;;4.00;2.70;;;;;;;;;;105673;1253;60862;-65
2023/02/28 06:52:53;;;;;;;3.80;3.00;;;;;;;;;;105456;1260;60834;-64
2023/02/28 06:55:24;;;;;;;2.90;2.50;;;;;;;;;;105484;1270;60840;-64
2023/02/28 06:57:54;;;;;;;3.60;2.80;;;;;;;;;;105450;1251;60756;-64
2023/02/28 07:00:23;;;;;;;3.80;3.10;;;;;;;;;;105330;1251;60869;-66
2023/02/28 07:02:51;;;;;;;3.90;3.00;;;;;;;;;;105300;1251;61077;-67
2023/02/28 07:05:19;;;;;;;4.70;3.20;;;;;;;;;;105334;1251;60791;-66
2023/02/28 07:07:48;;;;;;;3.20;2.60;;;;;;;;;;105277;1248;60846;-68
2023/02/28 07:10:17;;;;;;;4.00;3.50;;;;;;;;;;105376;1264;60874;-65
2023/02/28 07:12:49;;;;;;;3.60;3.20;;;;;;;;;;105330;1252;60891;-66
2023/02/28 07:15:18;;;;;;;3.70;3.10;;;;;;;;;;105273;1248;60875;-65
2023/02/28 07:17:46;;;;;;;3.30;3.00;;;;;;;;;;105340;1257;60523;-64
2023/02/28 07:20:14;;;;;;;3.20;2.80;;;;;;;;;;105285;1249;60748;-65
2023/02/28 07:22:43;;;;;;;3.40;2.90;;;;;;;;;;105254;1260;61240;-66
2023/02/28 07:25:11;;;;;;;3.00;2.70;;;;;;;;;;105359;1263;60885;-67
2023/02/28 07:27:41;;;;;;;3.30;2.80;;;;;;;;;;105332;1254;60823;-67
2023/02/28 07:30:09;;;;;;;3.00;2.50;;;;;;;;;;105400;1253;60941;-67
2023/02/28 07:32:38;;;;;;;3.00;2.70;;;;;;;;;;105301;1254;60958;-67
2023/02/28 07:35:07;;;;;;;3.50;2.80;;;;;;;;;;105231;1251;60828;-66
2023/02/28 07:37:36;;;;;;;3.60;3.20;;;;;;;;;;105316;1254;60940;-67
2023/02/28 07:40:07;;;;;;;3.60;2.80;;;;;;;;;;105220;1247;60866;-69
2023/02/28 07:42:36;;;;;;;3.80;3.10;;;;;;;;;;105198;1248;61115;-66
2023/02/28 07:45:05;;;;;;;3.60;3.30;;;;;;;;;;105423;1251;60767;-67
2023/02/28 07:47:33;;;;;;;3.70;3.30;;;;;;;;;;109087;1251;59057;-67
2023/02/28 07:50:01;;;;;;;3.90;3.30;;;;;;;;;;106261;1251;60779;-67
2023/02/28 07:52:30;;;;;;;3.50;3.10;;;;;;;;;;105283;1270;60949;-67
2023/02/28 07:54:58;;;;;;;3.40;3.10;;;;;;;;;;105466;1247;60767;-64
2023/02/28 07:57:26;;;;;;;3.30;2.50;;;;;;;;;;105328;1258;61396;-65
2023/02/28 07:59:55;;;;;;;3.60;3.00;;;;;;;;;;105333;1247;60917;-67
2023/02/28 08:02:24;;;;;;;3.40;3.10;;;;;;;;;;105358;1248;60856;-68
2023/02/28 08:04:57;;;;;;;4.00;3.00;;;;;;;;;;105260;1248;61310;-65
2023/02/28 08:07:45;;;;;;;4.70;3.40;;;;;;;;;;105350;1260;60783;-71
2023/02/28 08:10:15;;;;;;;2.90;2.60;;;;;;;;;;105378;1248;60873;-70
2023/02/28 08:12:44;;;;;;;3.40;3.10;;;;;;;;;;105260;1252;60958;-68
2023/02/28 08:15:13;;;;;;;3.50;3.00;;;;;;;;;;105320;1251;60891;-69
2023/02/28 08:17:42;;;;;;;3.60;3.20;;;;;;;;;;105563;1248;60954;-69
2023/02/28 08:20:11;;;;;;;2.50;2.30;;;;;;;;;;105465;1250;61020;-65
2023/02/28 08:22:39;;;;;;;3.20;2.90;;;;;;;;;;105161;1251;60808;-66
2023/02/28 08:25:08;;;;;;;4.00;2.90;;;;;;;;;;105330;1253;61013;-66
2023/02/28 08:27:36;;;;;;;2.60;2.40;;;;;;;;;;105206;1264;60869;-64
2023/02/28 08:30:05;;;;;;;3.20;2.90;;;;;;;;;;105340;1248;61102;-67
2023/02/28 08:32:34;;;;;;;2.70;2.20;;;;;;;;;;105432;1249;61447;-66
2023/02/28 08:35:03;;;;;;;3.10;2.70;;;;;;;;;;105172;1250;61199;-64
2023/02/28 08:37:31;;;;;;;2.60;2.40;;;;;;;;;;105297;1253;61231;-65
2023/02/28 08:40:00;;;;;;;3.10;2.40;;;;;;;;;;105146;1253;61217;-63
2023/02/28 08:42:29;;;;;;;3.10;2.70;;;;;;;;;;105050;1251;60875;-63
2023/02/28 08:44:59;;;;;;;4.00;3.20;;;;;;;;;;105265;1255;60613;-65
2023/02/28 08:47:29;;;;;;;2.80;2.60;;;;;;;;;;105249;1253;60841;-69
2023/02/28 08:49:57;;;;;;;2.70;2.40;;;;;;;;;;105521;1249;60770;-66
2023/02/28 08:52:26;;;;;;;3.00;2.40;;;;;;;;;;105152;1250;60866;-71
2023/02/28 08:54:54;;;;;;;2.80;2.50;;;;;;;;;;105328;1251;60856;-68
2023/02/28 08:57:22;;;;;;;3.30;2.80;;;;;;;;;;105774;1253;60856;-69
2023/02/28 08:59:51;;;;;;;3.50;2.80;;;;;;;;;;105281;1253;60735;-68
2023/02/28 09:02:24;;;;;;;3.90;2.70;;;;;;;;;;105219;1271;60834;-70
2023/02/28 09:04:52;;;;;;;6.40;2.80;;;;;;;;;;105237;1264;60285;-69
2023/02/28 09:07:20;;;;;;;3.30;2.80;;;;;;;;;;105184;1260;60899;-70
2023/02/28 09:09:54;;;;;;;3.00;2.70;;;;;;;;;;105608;1251;60774;-73
2023/02/28 09:12:26;;;;;;;3.40;3.10;;;;;;;;;;105300;1252;61209;-71
2023/02/28 09:14:55;;;;;;;3.50;3.20;;;;;;;;;;105519;1251;60811;-71
2023/02/28 09:17:24;;;;;;;4.40;3.20;;;;;;;;;;105679;1251;61640;-71
2023/02/28 09:19:58;;;;;;;3.80;2.90;;;;;;;;;;106246;1251;60977;-69
2023/02/28 09:22:28;;;;;;;3.50;2.90;;;;;;;;;;105618;1248;61779;-69
2023/02/28 09:24:56;;;;;;;3.80;3.00;;;;;;;;;;105486;1252;61563;-69
2023/02/28 09:27:25;;;;;;;3.20;2.90;;;;;;;;;;105250;1253;61712;-68
2023/02/28 09:29:56;;;;;;;4.50;2.70;;;;;;;;;;105505;1253;61583;-69
2023/02/28 09:32:25;;;;;;;5.20;2.80;;;;;;;;;;105208;1253;61432;-69
2023/02/28 09:34:54;;;;;;;3.00;2.70;;;;;;;;;;105480;1250;61599;-68
2023/02/28 09:37:29;;;;;;;3.30;3.00;;;;;;;;;;105667;1249;61688;-68
2023/02/28 09:39:57;;;;;;;3.40;3.00;;;;;;;;;;105487;1252;62002;-69
2023/02/28 09:42:29;;;;;;;3.10;2.90;;;;;;;;;;105365;1247;62214;-69
2023/02/28 09:44:57;;;;;;;3.00;2.80;;;;;;;;;;105401;1251;61592;-69
2023/02/28 09:47:39;;;;;;;3.50;3.20;;;;;;;;;;108468;1247;61578;-70
2023/02/28 09:50:12;;;;;;;4.60;3.40;;;;;;;;;;106128;1248;61676;-68
2023/02/28 09:52:41;;;;;;;3.30;3.00;;;;;;;;;;106017;1248;61679;-69
2023/02/28 09:55:22;;;;;;;3.10;2.80;;;;;;;;;;105331;1252;60693;-71
2023/02/28 09:57:50;;;;;;;3.40;3.00;;;;;;;;;;105374;1253;61706;-70
2023/02/28 10:00:19;;;;;;;5.50;3.60;;;;;;;;;;105547;1252;61675;-68
2023/02/28 10:02:50;;;;;;;3.30;3.00;;;;;;;;;;105814;1249;61587;-70
2023/02/28 10:05:20;;;;;;;3.50;3.20;;;;;;;;;;105508;1252;61625;-66
2023/02/28 10:08:07;;;;;;;3.50;3.20;;;;;;;;;;105594;1247;61701;-68
2023/02/28 10:10:55;;;;;;;3.50;3.20;;;;;;;;;;105878;1248;61969;-68
2023/02/28 10:13:23;;;;;;;;;;;;;;;;;;105050;1248;61700;-67
2023/02/28 10:16:14;;;;;;;2.90;2.60;;;;;;;;;;105455;1250;61564;-68
2023/02/28 10:18:44;;;;;;;5.80;3.50;;;;;;;;;;105304;1253;61715;-67
2023/02/28 10:21:48;;;;;;;3.80;3.50;;;;;;;;;;105350;1252;61685;-64
2023/02/28 10:24:29;;;;;;;3.60;3.30;;;;;;;;;;104664;1268;61751;-66
2023/02/28 10:26:59;;;;;;;3.70;3.30;;;;;;;;;;105500;1254;61623;-66
2023/02/28 10:29:29;;;;;;;4.30;3.20;;;;;;;;;;105207;1250;61606;-66
2023/02/28 10:31:58;;;;;;;4.00;3.60;;;;;;;;;;105261;1259;61689;-66
2023/02/28 10:34:27;;;;;;;3.10;2.80;;;;;;;;;;105252;1269;61685;-64
2023/02/28 10:36:56;;;;;;;3.30;3.00;;;;;;;;;;105386;1253;61717;-65
2023/02/28 10:39:39;;;;;;;2.90;2.60;;;;;;;;;;105639;1247;61616;-65
2023/02/28 10:42:25;;;;;;;3.70;2.50;;;;;;;;;;105155;1256;61679;-67
2023/02/28 10:45:09;;;;;;;3.10;2.80;;;;;;;;;;105320;1248;61669;-67
2023/02/28 10:47:55;;;;;;;2.90;2.70;;;;;;;;;;105263;1251;61672;-67
2023/02/28 10:50:27;;;;;;;3.00;2.80;;;;;;;;;;105280;1256;61155;-69
2023/02/28 10:52:55;;;;;;;3.60;3.10;;;;;;;;;;106042;1251;61966;-66
2023/02/28 10:55:25;;;;;;;5.60;4.00;;;;;;;;;;105658;1253;61587;-66
2023/02/28 10:57:53;;;;;;;5.70;4.00;;;;;;;;;;105459;1252;61620;-65
2023/02/28 11:00:23;;;;;;;4.30;3.40;;;;;;;;;;105668;1252;61693;-66
2023/02/28 11:02:51;;;;;;;3.50;3.20;;;;;;;;;;105673;1253;61088;-66
2023/02/28 11:05:33;;;;;;;4.40;3.60;;;;;;;;;;105612;1252;61608;-67
2023/02/28 11:08:15;;;;;;;4.20;3.30;;;;;;;;;;105136;1254;62229;-64
2023/02/28 11:10:47;;;;;;;4.20;3.80;;;;;;;;;;105459;1253;61643;-65
2023/02/28 11:13:25;;;;;;;4.30;3.70;;;;;;;;;;105339;1247;61773;-65
2023/02/28 11:15:54;;;;;;;4.00;3.40;;;;;;;;;;104946;1269;61087;-64
2023/02/28 11:18:43;;;;;;;3.90;3.50;;;;;;;;;;105336;1251;61561;-64
2023/02/28 11:21:16;;;;;;;4.40;4.00;;;;;;;;;;105071;1252;61580;-64
2023/02/28 11:23:45;;;;;;;3.50;3.20;;;;;;;;;;104967;1262;61683;-64
2023/02/28 11:26:13;;;;;;;4.70;3.70;;;;;;;;;;105323;1248;61701;-63
2023/02/28 11:28:42;;;;;;;4.30;3.90;;;;;;;;;;105341;1247;61685;-63
2023/02/28 11:31:13;;;;;;;3.60;3.30;;;;;;;;;;105134;1248;61775;-65
2023/02/28 11:33:44;;;;;;;3.70;3.40;;;;;;;;;;105348;1262;61068;-65
2023/02/28 11:36:21;;;;;;;4.30;3.20;;;;;;;;;;105196;1248;61702;-65
2023/02/28 11:38:50;;;;;;;3.80;3.30;;;;;;;;;;104901;1251;61986;-64
2023/02/28 11:41:23;;;;;;;4.70;3.60;;;;;;;;;;105197;1249;61636;-65
2023/02/28 11:44:11;;;;;;;3.50;3.20;;;;;;;;;;105325;1248;61711;-65
2023/02/28 11:46:41;;;;;;;4.30;3.90;;;;;;;;;;105681;1248;61587;-64
2023/02/28 11:49:14;;;;;;;3.60;3.30;;;;;;;;;;109080;1248;60868;-66
2023/02/28 11:51:42;;;;;;;4.30;3.50;;;;;;;;;;106455;1253;60562;-67
2023/02/28 11:54:26;;;;;;;4.70;3.70;;;;;;;;;;105561;1248;61593;-67
2023/02/28 11:56:56;;;;;;;5.30;4.60;;;;;;;;;;105369;1254;61665;-66
2023/02/28 11:59:34;;;;;;;4.30;3.80;;;;;;;;;;105264;1249;61699;-66
2023/02/28 12:02:02;;;;;;;4.20;3.80;;;;;;;;;;105334;1253;61633;-65
2023/02/28 12:04:40;;;;;;;5.20;4.30;;;;;;;;;;105314;1252;62393;-64
2023/02/28 12:07:09;;;;;;;4.90;4.00;;;;;;;;;;105279;1252;61760;-67
2023/02/28 12:10:05;;;;;;;5.30;4.80;;;;;;;;;;105199;1251;61727;-66
2023/02/28 12:12:33;;;;;;;5.00;4.20;;;;;;;;;;105234;1251;61593;-64
2023/02/28 12:15:02;;;;;;;5.90;4.60;;;;;;;;;;105312;1251;61597;-63
2023/02/28 12:17:46;;;;;;;5.30;4.30;;;;;;;;;;105272;1248;61602;-64
2023/02/28 12:20:24;;;;;;;5.20;4.70;;;;;;;;;;105090;1249;62136;-64
2023/02/28 12:22:52;;;;;;;;;;;;;;;;;;105122;1260;61721;-64
2023/02/28 12:25:23;;;;;;;4.80;4.20;;;;;;;;;;105307;1271;61070;-64
2023/02/28 12:27:53;;;;;;;4.60;4.10;;;;;;;;;;105212;1253;61807;-72
2023/02/28 12:30:28;;;;;;;7.50;4.30;;;;;;;;;;105367;1253;61592;-62
2023/02/28 12:33:08;;;;;;;5.30;3.70;;;;;;;;;;105350;1256;60818;-66
2023/02/28 12:35:38;;;;;;;4.50;3.40;;;;;;;;;;105356;1252;61673;-66
2023/02/28 12:38:12;;;;;;;4.30;3.90;;;;;;;;;;105426;1247;61685;-66
2023/02/28 12:40:41;;;;;;;4.20;3.80;;;;;;;;;;105282;1251;61565;-63
2023/02/28 12:43:10;;;;;;;4.10;3.70;;;;;;;;;;105487;1254;61688;-68
2023/02/28 12:45:40;;;;;;;4.20;3.80;;;;;;;;;;105554;1251;61580;-64
2023/02/28 12:48:10;;;;;;;4.10;3.50;;;;;;;;;;105687;1247;61580;-65
2023/02/28 12:50:40;;;;;;;4.50;3.70;;;;;;;;;;105163;1248;61081;-63
2023/02/28 12:53:09;;;;;;;4.30;3.90;;;;;;;;;;105768;1247;61614;-69
2023/02/28 12:55:42;;;;;;;3.80;3.50;;;;;;;;;;105540;1264;60232;-69
2023/02/28 12:58:36;;;;;;;3.70;3.30;;;;;;;;;;105281;1247;61692;-68
2023/02/28 13:01:11;;;;;;;4.20;3.80;;;;;;;;;;104988;1267;61606;-67
2023/02/28 13:04:06;;;;;;;5.60;4.30;;;;;;;;;;105400;1248;61900;-68
2023/02/28 13:06:55;;;;;;;5.30;4.40;;;;;;;;;;105161;1269;61696;-67
2023/02/28 13:09:24;;;;;;;4.40;3.50;;;;;;;;;;105208;1252;61663;-67
2023/02/28 13:11:53;;;;;;;4.50;3.70;;;;;;;;;;105270;1257;60965;-69
2023/02/28 13:14:25;;;;;;;4.20;3.80;;;;;;;;;;105643;1251;61640;-68
2023/02/28 13:16:57;;;;;;;5.00;3.50;;;;;;;;;;105422;1260;60669;-68
2023/02/28 13:19:28;;;;;;;3.90;3.50;;;;;;;;;;105478;1251;61595;-67
2023/02/28 13:21:56;;;;;;;4.10;3.70;;;;;;;;;;105215;1253;61614;-67
2023/02/28 13:24:34;;;;;;;6.30;3.50;;;;;;;;;;105505;1266;61712;-68
2023/02/28 13:27:02;;;;;;;4.10;3.70;;;;;;;;;;105713;1251;61920;-68
2023/02/28 13:29:33;;;;;;;3.60;3.30;;;;;;;;;;105738;1260;61708;-69
2023/02/28 13:32:02;;;;;;;4.70;3.40;;;;;;;;;;105653;1257;61699;-69
2023/02/28 13:34:30;;;;;;;4.00;3.60;;;;;;;;;;105557;1249;61708;-68
2023/02/28 13:37:17;;;;;;;3.70;3.40;;;;;;;;;;105001;1247;62159;-68
2023/02/28 13:39:49;;;;;;;4.00;3.50;;;;;;;;;;105340;1248;61690;-67
2023/02/28 13:42:24;;;;;;;5.30;4.20;;;;;;;;;;105179;1257;61669;-68
2023/02/28 13:45:03;;;;;;;5.50;4.30;;;;;;;;;;105389;1252;61692;-64
2023/02/28 13:47:31;;;;;;;;;;;;;;;;;;106041;1256;61688;-61
2023/02/28 13:50:19;;;;;;;4.20;3.70;;;;;;;;;;108953;1248;60218;-64
2023/02/28 13:52:50;;;;;;;4.50;3.50;;;;;;;;;;106711;1253;61059;-66
2023/02/28 13:55:25;;;;;;;6.00;4.60;;;;;;;;;;105440;1249;61662;-69
2023/02/28 13:57:53;;;;;;;5.20;4.00;;;;;;;;;;106195;1251;61590;-65
2023/02/28 14:00:41;;;;;;;5.30;3.90;;;;;;;;;;105910;1253;61613;-64
2023/02/28 14:03:28;;;;;;;4.40;4.00;;;;;;;;;;105502;1248;61567;-68
2023/02/28 14:06:08;;;;;;;5.00;4.40;;;;;;;;;;105678;1252;61614;-66
2023/02/28 14:08:37;;;;;;;4.40;3.90;;;;;;;;;;105709;1252;61766;-65
2023/02/28 14:11:06;;;;;;;6.60;4.30;;;;;;;;;;105408;1253;61626;-65
2023/02/28 14:13:46;;;;;;;7.00;4.00;;;;;;;;;;105405;1256;61072;-65
2023/02/28 14:16:26;;;;;;;4.00;3.50;;;;;;;;;;105250;1256;61567;-64
2023/02/28 14:19:01;;;;;;;5.10;3.60;;;;;;;;;;105823;1251;61669;-65
2023/02/28 14:21:33;;;;;;;4.00;3.60;;;;;;;;;;105588;1260;61812;-66
2023/02/28 14:24:19;;;;;;;5.80;4.20;;;;;;;;;;106026;1249;61679;-67
2023/02/28 14:26:48;;;;;;;5.20;3.70;;;;;;;;;;105715;1257;61699;-66
2023/02/28 14:29:28;;;;;;;4.40;3.80;;;;;;;;;;105814;1252;61016;-66
2023/02/28 14:32:15;;;;;;;5.40;3.80;;;;;;;;;;105391;1255;61794;-66
2023/02/28 14:34:47;;;;;;;5.50;4.00;;;;;;;;;;105567;1247;61635;-66
2023/02/28 14:37:16;;;;;;;5.20;4.40;;;;;;;;;;105624;1260;62259;-66
2023/02/28 14:39:45;;;;;;;5.60;4.30;;;;;;;;;;105465;1270;61131;-66
2023/02/28 14:42:27;;;;;;;6.30;4.00;;;;;;;;;;105474;1252;61664;-68
2023/02/28 14:44:56;;;;;;;4.10;3.70;;;;;;;;;;105651;1252;62278;-66
2023/02/28 14:47:27;;;;;;;3.90;3.40;;;;;;;;;;105472;1248;61635;-68
2023/02/28 14:49:55;;;;;;;5.40;3.90;;;;;;;;;;105720;1252;62183;-66
2023/02/28 14:52:24;;;;;;;4.80;4.00;;;;;;;;;;105601;1253;61711;-66
2023/02/28 14:55:00;;;;;;;4.50;3.70;;;;;;;;;;105499;1248;61906;-67
2023/02/28 14:57:30;;;;;;;4.30;3.80;;;;;;;;;;105448;1264;61648;-67
2023/02/28 15:00:03;;;;;;;4.10;3.70;;;;;;;;;;105297;1248;61677;-67